Time;durP1;ratioP1;P1;durP2;ratioP2;P2;SDS_P1;SDS_P2;PMS_P1;PMS_P2;Temp;Humidity;BMP_temperature;BMP_pressure;BME280_temperature;BME280_humidity;BME280_pressure;Samples;Min_cycle;Max_cycle;Signal;HPM_P1;HPM_P2
2022/12/28 00:00:00;;;;;;;9.43;4.80;;;7.60;99.90;;;;;;5074028;28;20201;-85
2022/12/28 00:25:03;;;;;;;6.23;5.07;;;7.80;99.90;;;;;;5131001;22;20248;-85
2022/12/28 00:27:37;;;;;;;7.80;5.20;;;7.80;99.90;;;;;;5073300;28;20588;-85
2022/12/28 00:30:17;;;;;;;6.03;4.80;;;7.80;99.90;;;;;;5073264;28;20232;-85
2022/12/28 00:32:51;;;;;;;7.57;4.63;;;7.80;99.90;;;;;;5071939;28;20226;-85
2022/12/28 00:35:22;;;;;;;5.43;4.83;;;7.80;99.90;;;;;;5055525;28;20202;-85
2022/12/28 00:44:36;;;;;;;8.87;5.33;;;7.90;99.90;;;;;;5079685;28;20182;-90
2022/12/28 01:00:44;;;;;;;6.63;4.73;;;8.00;99.90;;;;;;5085299;22;20222;-89
2022/12/28 01:07:23;;;;;;;6.53;5.60;;;8.00;99.90;;;;;;5078231;28;20205;-92
2022/12/28 01:10:00;;;;;;;5.30;4.80;;;8.00;99.90;;;;;;5288870;22;20369;-86
2022/12/28 01:13:00;;;;;;;5.57;4.80;;;8.00;99.90;;;;;;5075697;28;20241;-85
2022/12/28 01:16:12;;;;;;;5.30;4.87;;;8.10;99.90;;;;;;5076504;28;20182;-86
2022/12/28 01:19:01;;;;;;;8.83;5.90;;;8.10;99.90;;;;;;5058705;28;20232;-86
2022/12/28 01:25:29;;;;;;;9.27;5.53;;;8.20;99.90;;;;;;5076516;28;20225;-87
2022/12/28 01:31:46;;;;;;;8.07;5.43;;;8.20;99.90;;;;;;5075084;28;20249;-87
2022/12/28 01:40:25;;;;;;;6.13;5.63;;;8.10;99.90;;;;;;5075890;28;20191;-87
2022/12/28 01:43:09;;;;;;;6.53;5.40;;;8.10;99.90;;;;;;5073803;28;20241;-86
2022/12/28 01:49:22;;;;;;;6.47;5.87;;;8.10;99.90;;;;;;5043137;28;20216;-86
2022/12/28 01:55:38;;;;;;;7.87;5.90;;;8.00;99.90;;;;;;5076759;28;20233;-86
2022/12/28 01:58:44;;;;;;;7.77;5.87;;;8.10;99.90;;;;;;5077219;28;20221;-87
2022/12/28 02:08:30;;;;;;;6.83;5.27;;;8.20;99.90;;;;;;5075187;28;20203;-86
2022/12/28 02:11:23;;;;;;;5.50;5.00;;;8.20;99.90;;;;;;5057969;28;20271;-86
2022/12/28 02:14:40;;;;;;;6.87;5.53;;;8.20;99.90;;;;;;5076539;28;20191;-86
2022/12/28 02:17:34;;;;;;;6.80;4.90;;;8.30;99.90;;;;;;5075976;28;20221;-86
2022/12/28 02:27:05;;;;;;;5.13;4.10;;;8.60;99.90;;;;;;5079419;28;20179;-86
2022/12/28 02:30:21;;;;;;;6.17;4.70;;;8.60;99.90;;;;;;5062734;28;20232;-86
2022/12/28 02:42:54;;;;;;;6.73;4.00;;;8.80;99.90;;;;;;5058403;28;20183;-86
2022/12/28 02:53:01;;;;;;;6.20;4.13;;;8.90;99.90;;;;;;5060691;28;20199;-87
2022/12/28 02:56:22;;;;;;;5.20;3.60;;;8.90;99.90;;;;;;4973969;28;20191;-87
2022/12/28 03:12:54;;;;;;;6.07;3.80;;;9.10;99.90;;;;;;5058118;28;20422;-86
2022/12/28 03:16:25;;;;;;;3.70;3.00;;;9.10;99.90;;;;;;5060106;28;20511;-87
2022/12/28 03:34:14;;;;;;;5.50;2.93;;;9.30;99.90;;;;;;5100349;28;20235;-90
2022/12/28 03:37:04;;;;;;;7.70;2.97;;;9.30;99.90;;;;;;5101907;28;20541;-91
2022/12/28 03:39:41;;;;;;;3.67;2.73;;;9.30;99.90;;;;;;5097496;28;20271;-89
2022/12/28 03:45:32;;;;;;;3.33;2.57;;;9.30;99.90;;;;;;5082414;28;20205;-90
2022/12/28 03:48:07;;;;;;;4.13;2.83;;;9.20;99.90;;;;;;5082442;28;20558;-93
2022/12/28 03:51:16;;;;;;;4.23;3.00;;;9.20;99.90;;;;;;5070042;28;20229;-90
2022/12/28 03:54:23;;;;;;;3.93;2.73;;;9.30;99.90;;;;;;5083558;28;20237;-92
2022/12/28 03:57:01;;;;;;;5.63;2.83;;;9.20;99.90;;;;;;5082842;28;20235;-92
2022/12/28 03:59:30;;;;;;;5.37;2.93;;;9.30;99.90;;;;;;5083349;28;20237;-92
2022/12/28 04:01:59;;;;;;;2.67;2.47;;;9.30;99.90;;;;;;5082619;28;20204;-90
2022/12/28 04:04:31;;;;;;;4.40;2.67;;;9.40;99.90;;;;;;5082895;28;20210;-92
2022/12/28 04:06:58;;;;;;;4.03;2.40;;;9.40;99.90;;;;;;5083063;28;20201;-91
2022/12/28 04:09:31;;;;;;;4.30;2.80;;;9.50;99.90;;;;;;5080840;28;20226;-90
2022/12/28 04:12:01;;;;;;;3.83;2.07;;;9.40;99.90;;;;;;5082617;28;20201;-91
2022/12/28 04:14:29;;;;;;;3.53;2.30;;;9.50;99.90;;;;;;5081917;28;20212;-90
2022/12/28 04:16:57;;;;;;;3.20;2.40;;;9.50;99.90;;;;;;5081830;28;20210;-89
2022/12/28 04:19:26;;;;;;;5.03;2.10;;;9.70;99.90;;;;;;5082804;28;20232;-90
2022/12/28 04:21:54;;;;;;;4.20;2.23;;;9.60;99.90;;;;;;5082074;28;20273;-90
2022/12/28 04:24:22;;;;;;;2.20;2.00;;;9.70;99.90;;;;;;5081029;28;20316;-92
2022/12/28 04:26:55;;;;;;;4.07;2.33;;;9.60;99.90;;;;;;5080917;28;20210;-91
2022/12/28 04:29:22;;;;;;;6.43;2.57;;;9.60;99.90;;;;;;5081871;28;20230;-93
2022/12/28 04:31:49;;;;;;;5.17;2.30;;;9.60;99.90;;;;;;5081624;28;20251;-90
2022/12/28 04:34:17;;;;;;;5.40;2.27;;;9.50;99.90;;;;;;5081543;28;20208;-90
2022/12/28 04:37:30;;;;;;;3.33;2.13;;;9.50;99.90;;;;;;5080389;28;20202;-91
2022/12/28 04:40:00;;;;;;;5.73;2.30;;;9.50;99.90;;;;;;5082118;28;20289;-90
2022/12/28 04:42:29;;;;;;;3.27;2.43;;;9.50;99.90;;;;;;5081092;28;20228;-92
2022/12/28 04:44:56;;;;;;;3.37;2.17;;;9.70;99.90;;;;;;5081571;28;20198;-93
2022/12/28 04:47:24;;;;;;;7.23;2.13;;;9.50;99.90;;;;;;5082521;28;20224;-90
2022/12/28 04:49:51;;;;;;;3.13;2.63;;;9.50;99.90;;;;;;5081557;28;20237;-89
2022/12/28 04:52:21;;;;;;;3.77;2.00;;;9.60;99.90;;;;;;5081774;28;20229;-92
2022/12/28 04:54:53;;;;;;;2.33;1.80;;;9.60;99.90;;;;;;5081846;28;20714;-94
2022/12/28 04:57:20;;;;;;;5.17;2.00;;;9.70;99.90;;;;;;5091450;28;20206;-94
2022/12/28 04:59:58;;;;;;;3.03;2.10;;;9.70;99.90;;;;;;5090343;28;20225;-90
2022/12/28 05:02:28;;;;;;;5.23;1.80;;;9.70;99.90;;;;;;5081209;28;20641;-92
2022/12/28 05:04:59;;;;;;;6.70;2.73;;;9.60;99.90;;;;;;5080672;28;20251;-91
2022/12/28 05:10:51;;;;;;;5.97;2.38;;;9.70;99.90;;;;;;5077887;28;20814;-91
2022/12/28 05:13:53;;;;;;;6.67;1.90;;;9.90;99.90;;;;;;5081956;28;20251;-91
2022/12/28 05:16:27;;;;;;;4.37;1.80;;;9.90;99.90;;;;;;5079969;28;20201;-91
2022/12/28 05:18:59;;;;;;;4.57;2.07;;;9.90;99.90;;;;;;5080644;28;20294;-90
2022/12/28 05:21:32;;;;;;;4.00;2.10;;;9.80;99.90;;;;;;5079762;28;20219;-92
2022/12/28 05:24:02;;;;;;;6.20;1.97;;;9.80;99.90;;;;;;5078655;28;20760;-92
2022/12/28 05:26:32;;;;;;;2.70;1.67;;;9.80;99.90;;;;;;5078934;28;20327;-91
2022/12/28 05:29:00;;;;;;;5.53;1.63;;;9.90;99.90;;;;;;5081481;28;20229;-94
2022/12/28 05:31:38;;;;;;;2.83;1.57;;;9.80;99.90;;;;;;5082720;28;20190;-93
2022/12/28 05:34:13;;;;;;;4.73;2.57;;;9.90;99.90;;;;;;5084315;28;20208;-93
2022/12/28 05:40:02;;;;;;;5.30;1.67;;;9.90;99.90;;;;;;5082856;28;20200;-92
2022/12/28 05:42:30;;;;;;;2.90;1.60;;;9.90;99.90;;;;;;5088956;28;20206;-92
2022/12/28 05:44:57;;;;;;;2.73;1.30;;;9.80;99.90;;;;;;5097695;28;20190;-90
2022/12/28 05:47:27;;;;;;;3.13;1.80;;;9.80;99.90;;;;;;5097700;28;20209;-94
2022/12/28 05:49:56;;;;;;;4.77;1.93;;;9.90;99.90;;;;;;5097387;28;20252;-91
2022/12/28 05:55:59;;;;;;;4.93;2.00;;;9.80;99.90;;;;;;5097226;28;20185;-92
2022/12/28 05:58:33;;;;;;;3.47;1.70;;;9.90;99.90;;;;;;5082267;28;20656;-92
2022/12/28 06:01:09;;;;;;;5.80;2.20;;;10.00;99.90;;;;;;5070607;22;20314;-92
2022/12/28 06:04:09;;;;;;;3.93;1.63;;;9.90;99.90;;;;;;5051299;28;20291;-90
2022/12/28 06:06:38;;;;;;;7.47;1.60;;;10.00;99.90;;;;;;5054570;28;20201;-91
2022/12/28 06:09:05;;;;;;;6.57;2.30;;;9.90;99.90;;;;;;5049518;28;20433;-92
2022/12/28 06:11:32;;;;;;;5.03;1.60;;;10.00;99.90;;;;;;5039100;28;20524;-93
2022/12/28 06:14:02;;;;;;;5.60;1.80;;;10.00;99.90;;;;;;5039681;28;20245;-92
2022/12/28 06:16:33;;;;;;;1.63;1.50;;;10.00;99.90;;;;;;5039118;28;20207;-93
2022/12/28 06:19:09;;;;;;;7.77;2.33;;;9.90;99.90;;;;;;5038124;28;20207;-92
2022/12/28 06:21:43;;;;;;;5.53;2.13;;;10.00;99.90;;;;;;5028202;28;20197;-91
2022/12/28 06:24:19;;;;;;;4.47;1.93;;;10.00;99.90;;;;;;5041634;28;20223;-92
2022/12/28 06:26:49;;;;;;;4.40;1.70;;;9.90;99.90;;;;;;5039754;28;20289;-92
2022/12/28 06:29:16;;;;;;;5.40;1.80;;;9.90;99.90;;;;;;5044009;28;20230;-91
2022/12/28 06:31:53;;;;;;;8.17;2.50;;;9.90;99.90;;;;;;5044755;28;20242;-90
2022/12/28 06:34:24;;;;;;;3.53;1.67;;;9.90;99.90;;;;;;5047474;28;20203;-93
2022/12/28 06:36:58;;;;;;;6.93;2.25;;;10.00;99.90;;;;;;5047718;28;20863;-93
2022/12/28 06:39:54;;;;;;;7.13;2.03;;;10.00;99.90;;;;;;5045709;28;20210;-93
2022/12/28 06:42:47;;;;;;;6.10;2.00;;;9.90;99.90;;;;;;5036013;28;20211;-91
2022/12/28 06:45:26;;;;;;;5.00;2.30;;;9.90;99.90;;;;;;5045119;28;20651;-92
2022/12/28 06:47:58;;;;;;;4.80;2.00;;;9.90;99.90;;;;;;5032680;28;20219;-92
2022/12/28 06:50:33;;;;;;;5.43;1.83;;;9.90;99.90;;;;;;5028002;28;20659;-91
2022/12/28 07:03:14;;;;;;;5.53;1.90;;;9.90;99.90;;;;;;5039516;28;20254;-91
2022/12/28 07:06:43;;;;;;;7.53;1.87;;;9.90;99.90;;;;;;5038739;28;20648;-91
2022/12/28 07:10:17;;;;;;;8.07;2.07;;;9.80;99.90;;;;;;5066719;23;20214;-91
2022/12/28 07:16:48;;;;;;;9.20;2.20;;;9.90;99.90;;;;;;5019776;28;20188;-90
2022/12/28 07:27:03;;;;;;;6.60;2.13;;;9.90;99.90;;;;;;5099187;28;20198;-92
2022/12/28 08:23:26;;;;;;;3.60;1.87;;;9.80;99.90;;;;;;5072248;22;20195;-85
2022/12/28 08:26:37;;;;;;;7.00;2.53;;;9.70;99.90;;;;;;5116914;28;20221;-85
2022/12/28 08:29:42;;;;;;;6.93;1.90;;;9.50;99.90;;;;;;5116697;28;20205;-86
2022/12/28 08:32:29;;;;;;;8.43;2.80;;;9.60;99.90;;;;;;5107242;28;20204;-84
2022/12/28 08:35:07;;;;;;;12.07;3.65;;;9.60;99.90;;;;;;5117983;28;20465;-85
2022/12/28 08:41:28;;;;;;;12.33;3.10;;;9.50;99.90;;;;;;5097533;22;20241;-85
2022/12/28 08:44:08;;;;;;;3.27;2.10;;;9.40;99.90;;;;;;5094270;28;20229;-85
2022/12/28 08:55:51;;;;;;;7.77;2.37;;;9.30;99.90;;;;;;5096672;28;20221;-87
2022/12/28 09:12:56;;;;;;;10.03;3.57;;;9.50;99.90;;;;;;5076397;28;20217;-86
2022/12/28 09:39:51;;;;;;;9.17;3.00;;;9.60;99.90;;;;;;5080827;28;20225;-92
2022/12/28 09:42:22;;;;;;;7.00;3.17;;;9.60;99.90;;;;;;5078516;28;20201;-89
2022/12/28 09:44:56;;;;;;;8.07;2.90;;;9.50;99.90;;;;;;5066444;28;20228;-90
2022/12/28 09:47:39;;;;;;;3.93;2.40;;;9.50;99.90;;;;;;5081567;28;20240;-92
2022/12/28 09:50:27;;;;;;;7.87;2.83;;;9.50;99.90;;;;;;5071801;28;20229;-94
2022/12/28 09:53:18;;;;;;;11.60;3.03;;;9.50;99.90;;;;;;5103210;28;20205;-90
2022/12/28 09:55:59;;;;;;;8.87;3.40;;;9.50;99.90;;;;;;5089324;28;20203;-91
2022/12/28 09:58:36;;;;;;;5.70;2.57;;;9.50;99.90;;;;;;5093812;28;20209;-91
2022/12/28 10:01:09;;;;;;;8.20;3.03;;;9.60;99.90;;;;;;5094724;28;20755;-92
2022/12/28 10:03:40;;;;;;;4.57;3.13;;;9.60;99.90;;;;;;5094742;28;20204;-89
2022/12/28 10:06:22;;;;;;;5.37;2.70;;;9.50;99.90;;;;;;5090242;28;20731;-91
2022/12/28 10:08:53;;;;;;;8.83;3.60;;;9.60;99.90;;;;;;5083422;28;20239;-91
2022/12/28 10:11:26;;;;;;;7.50;2.87;;;9.60;99.90;;;;;;5095223;28;20801;-91
2022/12/28 10:13:56;;;;;;;7.13;2.93;;;9.60;99.90;;;;;;5083009;28;20202;-91
2022/12/28 10:16:25;;;;;;;8.63;2.97;;;9.70;99.90;;;;;;5080889;28;20206;-94
2022/12/28 10:18:53;;;;;;;3.47;2.50;;;9.60;99.90;;;;;;5086079;28;20189;-90
2022/12/28 10:21:24;;;;;;;5.20;2.70;;;9.70;99.90;;;;;;5083518;28;20307;-92
2022/12/28 10:23:54;;;;;;;6.90;2.90;;;9.70;99.90;;;;;;5088326;28;20220;-90
2022/12/28 10:26:24;;;;;;;3.07;2.30;;;9.60;99.90;;;;;;5087484;28;20201;-90
2022/12/28 10:28:53;;;;;;;5.13;2.17;;;9.70;99.90;;;;;;5087448;28;20269;-91
2022/12/28 10:31:32;;;;;;;6.10;2.33;;;9.60;99.90;;;;;;5082373;28;20222;-91
2022/12/28 10:33:59;;;;;;;7.15;3.42;;;9.60;99.90;;;;;;5084879;28;20796;-89
2022/12/28 10:36:31;;;;;;;3.20;2.43;;;9.90;99.90;;;;;;5087018;28;20197;-90
2022/12/28 10:38:59;;;;;;;3.40;2.27;;;9.80;99.90;;;;;;5083743;28;20259;-92
2022/12/28 10:41:36;;;;;;;5.67;2.70;;;9.70;99.90;;;;;;5076817;28;20289;-91
2022/12/28 10:44:18;;;;;;;6.17;2.53;;;9.70;99.90;;;;;;5096227;28;20209;-93
2022/12/28 10:46:57;;;;;;;8.03;2.30;;;9.70;99.90;;;;;;5084575;28;20623;-90
2022/12/28 10:49:26;;;;;;;6.53;2.60;;;9.80;99.90;;;;;;5097998;28;20648;-92
2022/12/28 10:52:17;;;;;;;5.03;3.07;;;9.80;99.90;;;;;;5080009;28;20560;-90
2022/12/28 10:54:44;;;;;;;7.13;3.10;;;9.80;99.90;;;;;;5084171;28;20230;-91
2022/12/28 10:57:19;;;;;;;7.63;2.80;;;9.80;99.90;;;;;;5097989;28;20662;-90
2022/12/28 10:59:48;;;;;;;13.07;3.03;;;9.90;99.90;;;;;;5098425;28;20283;-90
2022/12/28 11:02:28;;;;;;;8.32;3.10;;;9.90;99.90;;;;;;5079288;28;20437;-90
2022/12/28 11:04:57;;;;;;;5.40;2.93;;;10.00;99.90;;;;;;5079348;28;20222;-92
2022/12/28 11:07:33;;;;;;;8.10;3.13;;;10.00;99.90;;;;;;5089338;28;20251;-93
2022/12/28 11:10:16;;;;;;;8.27;2.90;;;10.10;99.90;;;;;;5084187;28;20219;-89
2022/12/28 11:12:45;;;;;;;9.27;3.17;;;10.20;99.90;;;;;;5095814;28;20371;-91
2022/12/28 11:15:17;;;;;;;5.47;2.77;;;10.30;99.90;;;;;;5088315;28;20208;-92
2022/12/28 11:17:49;;;;;;;6.33;2.87;;;10.20;99.90;;;;;;5079912;28;20300;-89
2022/12/28 11:20:18;;;;;;;7.80;2.80;;;10.30;99.90;;;;;;5097301;28;20221;-90
2022/12/28 11:22:46;;;;;;;10.43;2.50;;;10.30;99.90;;;;;;5097059;28;20581;-89
2022/12/28 11:25:16;;;;;;;7.53;3.20;;;10.30;99.90;;;;;;5096833;28;20224;-88
2022/12/28 11:27:43;;;;;;;6.10;2.87;;;10.40;99.90;;;;;;5083441;28;20193;-89
2022/12/28 11:30:16;;;;;;;10.83;3.07;;;10.50;99.90;;;;;;5096410;28;20221;-88
2022/12/28 11:32:50;;;;;;;11.10;2.43;;;10.40;99.90;;;;;;5096646;28;20250;-92
2022/12/28 11:35:20;;;;;;;8.40;2.63;;;10.40;99.90;;;;;;5096976;28;20237;-92
2022/12/28 11:37:52;;;;;;;8.63;2.90;;;10.40;99.90;;;;;;5097091;28;20216;-93
2022/12/28 11:40:47;;;;;;;4.20;2.83;;;10.40;99.90;;;;;;5081540;28;20248;-94
2022/12/28 11:43:51;;;;;;;7.77;2.63;;;10.40;99.90;;;;;;5076691;28;20553;-93
2022/12/28 11:46:41;;;;;;;9.63;2.57;;;10.30;99.90;;;;;;5056176;28;20339;-93
2022/12/28 11:49:29;;;;;;;5.23;2.07;;;10.40;99.90;;;;;;5097458;28;20292;-92
2022/12/28 11:52:45;;;;;;;6.87;2.27;;;10.40;99.90;;;;;;5083369;28;20230;-92
2022/12/28 11:55:49;;;;;;;6.30;2.40;;;10.50;99.90;;;;;;5093041;28;20217;-91
2022/12/28 11:59:00;;;;;;;6.67;2.40;;;10.50;99.90;;;;;;5051520;28;20198;-91
2022/12/28 12:01:57;;;;;;;7.63;2.53;;;10.50;99.90;;;;;;5041194;28;20198;-93
2022/12/28 12:04:43;;;;;;;5.87;2.33;;;10.50;99.90;;;;;;5070564;28;20236;-91
2022/12/28 12:07:25;;;;;;;6.33;2.30;;;10.50;99.90;;;;;;5091250;28;20205;-92
2022/12/28 12:10:29;;;;;;;6.47;3.10;;;10.50;99.90;;;;;;5087546;28;20220;-93
2022/12/28 12:13:19;;;;;;;6.67;2.73;;;10.60;99.90;;;;;;5077519;28;20285;-92
2022/12/28 12:15:48;;;;;;;6.33;2.57;;;10.60;99.90;;;;;;5082211;28;20304;-95
2022/12/28 12:18:23;;;;;;;4.43;2.27;;;10.50;99.90;;;;;;5078688;28;20206;-93
2022/12/28 12:21:02;;;;;;;8.17;2.53;;;10.60;99.90;;;;;;5085080;28;20316;-94
2022/12/28 12:23:39;;;;;;;9.07;2.63;;;10.70;99.90;;;;;;5087245;28;20217;-91
2022/12/28 12:26:19;;;;;;;4.53;2.50;;;10.60;99.90;;;;;;5075085;28;20720;-91
2022/12/28 12:28:48;;;;;;;6.70;2.10;;;10.60;99.90;;;;;;5085677;28;20267;-92
2022/12/28 12:31:23;;;;;;;9.00;3.30;;;10.60;99.90;;;;;;5085196;28;20458;-95
2022/12/28 12:33:55;;;;;;;4.93;2.20;;;10.70;99.90;;;;;;5107598;28;20248;-95
2022/12/28 12:37:18;;;;;;;5.63;2.00;;;10.70;99.90;;;;;;5093549;28;20233;-92
2022/12/28 12:40:37;;;;;;;5.63;2.03;;;10.70;99.90;;;;;;5097133;28;20218;-91
2022/12/28 12:43:39;;;;;;;6.97;2.13;;;10.70;99.90;;;;;;5089435;28;20438;-90
2022/12/28 12:46:22;;;;;;;5.17;1.83;;;10.80;99.90;;;;;;5003596;28;20706;-91
2022/12/28 12:49:35;;;;;;;3.70;1.90;;;10.90;99.90;;;;;;5014175;28;20198;-93
2022/12/28 12:52:15;;;;;;;4.43;2.17;;;10.90;99.90;;;;;;5094794;28;20201;-91
2022/12/28 12:55:06;;;;;;;8.13;1.80;;;10.90;99.90;;;;;;5081951;28;20236;-94
2022/12/28 12:57:45;;;;;;;8.07;2.00;;;10.80;99.90;;;;;;5079963;28;20202;-93
2022/12/28 13:00:17;;;;;;;7.55;2.78;;;10.90;99.90;;;;;;5065672;28;20413;-93
2022/12/28 13:03:13;;;;;;;5.00;2.10;;;11.00;99.90;;;;;;5085754;28;20206;-93
2022/12/28 13:05:51;;;;;;;5.90;2.30;;;10.90;99.90;;;;;;5082364;28;20339;-93
2022/12/28 13:08:41;;;;;;;2.90;1.63;;;11.10;99.90;;;;;;5087186;28;20205;-93
2022/12/28 13:11:10;;;;;;;3.07;1.63;;;11.00;99.90;;;;;;5079984;28;20226;-90
2022/12/28 13:13:40;;;;;;;5.93;2.00;;;10.90;99.90;;;;;;5081343;28;20269;-91
2022/12/28 13:16:11;;;;;;;3.93;2.00;;;11.00;99.90;;;;;;5085355;28;20233;-92
2022/12/28 13:18:39;;;;;;;5.27;2.10;;;11.00;99.90;;;;;;5095816;28;20202;-91
2022/12/28 13:21:21;;;;;;;5.60;1.87;;;11.00;99.90;;;;;;5089550;28;20230;-92
2022/12/28 13:23:49;;;;;;;5.10;1.90;;;11.00;99.90;;;;;;5075960;28;20317;-93
2022/12/28 13:26:18;;;;;;;6.00;2.20;;;11.10;99.90;;;;;;5104681;28;20222;-92
2022/12/28 13:28:56;;;;;;;6.50;2.40;;;11.10;99.90;;;;;;5103248;28;20214;-92
2022/12/28 13:31:31;;;;;;;4.27;2.13;;;11.10;99.90;;;;;;5112215;28;20225;-94
2022/12/28 13:34:00;;;;;;;5.90;1.80;;;11.10;99.90;;;;;;5103380;28;20216;-93
2022/12/28 13:36:30;;;;;;;6.27;1.87;;;11.10;99.90;;;;;;5104734;28;20232;-92
2022/12/28 13:39:03;;;;;;;4.97;2.20;;;11.10;99.90;;;;;;5102011;28;20422;-92
2022/12/28 13:41:33;;;;;;;6.33;1.90;;;11.20;99.90;;;;;;5087575;28;20455;-93
2022/12/28 13:44:30;;;;;;;8.60;1.70;;;11.10;99.90;;;;;;5095841;28;20269;-92
2022/12/28 13:47:03;;;;;;;6.63;2.03;;;11.00;99.90;;;;;;5097806;28;20286;-91
2022/12/28 13:49:36;;;;;;;5.00;1.70;;;11.00;99.90;;;;;;5095121;28;20637;-91
2022/12/28 13:52:11;;;;;;;4.13;1.60;;;11.00;99.90;;;;;;5090226;28;20273;-91
2022/12/28 13:54:39;;;;;;;3.33;1.80;;;11.00;99.90;;;;;;5089134;28;20228;-92
2022/12/28 13:57:08;;;;;;;4.60;1.80;;;11.00;99.90;;;;;;5084244;28;20232;-91
2022/12/28 13:59:36;;;;;;;7.37;1.90;;;11.00;99.90;;;;;;5085427;28;20309;-92
2022/12/28 14:02:04;;;;;;;3.60;1.83;;;11.00;99.90;;;;;;5088004;28;20190;-93
2022/12/28 14:04:32;;;;;;;3.53;1.60;;;11.10;99.90;;;;;;5097926;28;20198;-92
2022/12/28 14:07:00;;;;;;;5.10;2.27;;;11.10;99.90;;;;;;5094987;28;20204;-94
2022/12/28 14:09:29;;;;;;;5.67;1.90;;;11.10;99.90;;;;;;5077528;28;20222;-93
2022/12/28 14:11:57;;;;;;;5.80;1.90;;;11.10;99.90;;;;;;5085023;28;20297;-94
2022/12/28 14:14:24;;;;;;;5.33;1.60;;;11.00;99.90;;;;;;5076622;28;20198;-92
2022/12/28 14:16:51;;;;;;;5.03;1.57;;;11.00;99.90;;;;;;5082959;28;20233;-92
2022/12/28 14:19:18;;;;;;;5.97;1.97;;;11.00;99.90;;;;;;5083159;28;20201;-90
2022/12/28 14:21:46;;;;;;;5.23;2.10;;;11.10;99.90;;;;;;5086714;28;20212;-92
2022/12/28 14:24:15;;;;;;;6.50;2.03;;;11.00;99.90;;;;;;5084723;28;20206;-92
2022/12/28 14:26:49;;;;;;;6.28;2.60;;;11.00;99.90;;;;;;5088479;28;20429;-91
2022/12/28 14:29:21;;;;;;;4.97;2.20;;;11.00;99.90;;;;;;5091911;28;20198;-94
2022/12/28 14:31:48;;;;;;;4.97;2.07;;;11.00;99.90;;;;;;5089964;28;20197;-92
2022/12/28 14:34:24;;;;;;;5.03;2.20;;;10.80;99.90;;;;;;5084310;28;20212;-93
2022/12/28 14:36:53;;;;;;;5.10;1.93;;;10.70;99.90;;;;;;5097971;28;20207;-89
2022/12/28 14:39:30;;;;;;;3.07;2.40;;;10.70;99.90;;;;;;5097583;28;20319;-91
2022/12/28 14:42:05;;;;;;;3.27;2.30;;;10.70;99.90;;;;;;5098679;28;20232;-92
2022/12/28 14:44:38;;;;;;;5.30;1.97;;;10.70;99.90;;;;;;5088879;28;20298;-92
2022/12/28 14:47:33;;;;;;;5.63;2.40;;;10.60;99.90;;;;;;5093403;28;20248;-92
2022/12/28 14:50:04;;;;;;;5.60;2.43;;;10.60;99.90;;;;;;5096214;28;20288;-93
2022/12/28 14:52:49;;;;;;;4.60;2.78;;;10.50;99.90;;;;;;5089937;28;20472;-92
2022/12/28 14:55:27;;;;;;;4.33;2.13;;;10.40;99.90;;;;;;5086231;28;20215;-94
2022/12/28 14:58:00;;;;;;;3.53;2.10;;;10.40;99.90;;;;;;5099589;28;20212;-92
2022/12/28 15:00:29;;;;;;;4.43;1.83;;;10.40;99.90;;;;;;5079324;28;20253;-93
2022/12/28 15:03:19;;;;;;;4.67;2.10;;;10.30;99.90;;;;;;5079719;28;20202;-93
2022/12/28 15:05:49;;;;;;;5.53;2.00;;;10.20;99.90;;;;;;5080866;28;20226;-93
2022/12/28 15:08:18;;;;;;;4.73;2.37;;;10.20;99.90;;;;;;5080697;28;20197;-94
2022/12/28 15:10:50;;;;;;;4.63;2.07;;;10.10;99.90;;;;;;5081753;28;20256;-92
2022/12/28 15:13:37;;;;;;;5.70;2.50;;;10.10;99.90;;;;;;5084332;28;20217;-94
2022/12/28 15:16:05;;;;;;;7.23;2.50;;;10.10;99.90;;;;;;5063996;28;20213;-93
2022/12/28 15:18:32;;;;;;;7.57;2.60;;;10.10;99.90;;;;;;5081671;28;20463;-93
2022/12/28 15:21:05;;;;;;;5.33;2.37;;;10.00;99.90;;;;;;5082200;28;20222;-93
2022/12/28 15:23:32;;;;;;;4.40;2.43;;;10.00;99.90;;;;;;5089859;28;20202;-93
2022/12/28 15:25:59;;;;;;;5.47;2.77;;;10.00;99.90;;;;;;5093032;28;20241;-94
2022/12/28 15:28:27;;;;;;;3.20;2.43;;;10.00;99.90;;;;;;5092746;28;20225;-93
2022/12/28 15:30:57;;;;;;;5.77;2.00;;;10.10;99.90;;;;;;5083319;28;20292;-94
2022/12/28 15:33:28;;;;;;;3.00;2.43;;;10.10;99.90;;;;;;5081653;28;20225;-94
2022/12/28 15:36:02;;;;;;;4.63;2.50;;;10.10;99.90;;;;;;5080087;28;20648;-93
2022/12/28 15:38:30;;;;;;;9.30;3.00;;;10.10;99.90;;;;;;5060865;28;20209;-93
2022/12/28 15:40:58;;;;;;;3.47;2.30;;;10.10;99.90;;;;;;5077530;28;20225;-92
2022/12/28 15:43:25;;;;;;;3.30;2.07;;;10.10;99.90;;;;;;5077645;28;20239;-92
2022/12/28 15:45:55;;;;;;;5.73;2.20;;;10.10;99.90;;;;;;5076907;28;20253;-93
2022/12/28 15:48:22;;;;;;;4.47;2.83;;;10.10;99.90;;;;;;5078286;28;20229;-93
2022/12/28 15:50:50;;;;;;;5.47;2.53;;;10.00;99.90;;;;;;5078373;28;20309;-92
2022/12/28 15:53:17;;;;;;;8.90;2.60;;;10.10;99.90;;;;;;5079684;28;20235;-92
2022/12/28 15:55:58;;;;;;;2.10;1.90;;;10.10;99.90;;;;;;5079900;28;20358;-92
2022/12/28 15:58:27;;;;;;;6.23;2.53;;;10.00;99.90;;;;;;5079809;28;20229;-91
2022/12/28 16:01:02;;;;;;;6.30;2.40;;;10.00;99.90;;;;;;5078330;28;20261;-93
2022/12/28 16:03:29;;;;;;;4.00;1.93;;;10.00;99.90;;;;;;5079787;28;20211;-93
2022/12/28 16:05:59;;;;;;;6.80;2.33;;;10.00;99.90;;;;;;5078814;28;20499;-92
2022/12/28 16:08:26;;;;;;;4.37;2.20;;;9.90;99.90;;;;;;5078548;28;20300;-92
2022/12/28 16:10:53;;;;;;;6.43;2.57;;;9.90;99.90;;;;;;5078982;28;20763;-93
2022/12/28 16:13:21;;;;;;;4.40;2.20;;;9.90;99.90;;;;;;5083825;28;20253;-93
2022/12/28 16:15:50;;;;;;;4.17;2.77;;;9.90;99.90;;;;;;5082692;28;20209;-93
2022/12/28 16:18:21;;;;;;;7.20;2.40;;;9.90;99.90;;;;;;5080785;28;20232;-92
2022/12/28 16:20:48;;;;;;;4.90;2.50;;;9.90;99.90;;;;;;5079827;28;20246;-94
2022/12/28 16:23:15;;;;;;;5.03;2.30;;;9.90;99.90;;;;;;5079487;28;20269;-92
2022/12/28 16:25:50;;;;;;;4.07;2.40;;;9.90;99.90;;;;;;5081476;28;20222;-94
2022/12/28 16:28:17;;;;;;;6.73;2.30;;;9.80;99.90;;;;;;5080288;28;20202;-93
2022/12/28 16:30:48;;;;;;;5.93;2.50;;;9.90;99.90;;;;;;5082583;28;20305;-93
2022/12/28 16:33:15;;;;;;;5.03;2.30;;;9.80;99.90;;;;;;5081961;28;20200;-92
2022/12/28 16:35:45;;;;;;;3.63;2.40;;;9.80;99.90;;;;;;5080548;28;20665;-94
2022/12/28 16:38:13;;;;;;;5.83;2.90;;;9.80;99.90;;;;;;5079643;28;20213;-94
2022/12/28 16:40:40;;;;;;;3.10;2.10;;;9.80;99.90;;;;;;5079634;28;20304;-94
2022/12/28 16:43:10;;;;;;;3.07;2.37;;;9.80;99.90;;;;;;5075929;28;20209;-93
2022/12/28 16:45:38;;;;;;;4.27;2.30;;;9.80;99.90;;;;;;5076453;28;20293;-89
2022/12/28 16:48:07;;;;;;;4.97;2.87;;;9.80;99.90;;;;;;5075521;28;20217;-92
2022/12/28 16:50:34;;;;;;;4.70;2.50;;;9.80;99.90;;;;;;5093643;28;20247;-90
2022/12/28 16:53:04;;;;;;;5.83;3.03;;;9.90;99.90;;;;;;5078376;28;20251;-93
2022/12/28 16:55:34;;;;;;;3.93;2.40;;;9.80;99.90;;;;;;5080412;28;20206;-92
2022/12/28 16:58:01;;;;;;;3.83;2.43;;;9.90;99.90;;;;;;5084769;28;20281;-93
2022/12/28 17:00:28;;;;;;;5.10;2.67;;;9.90;99.90;;;;;;5061035;28;20218;-91
2022/12/28 17:02:55;;;;;;;2.50;2.30;;;9.90;99.90;;;;;;5079259;28;20285;-92
2022/12/28 17:05:27;;;;;;;6.17;2.50;;;9.90;99.90;;;;;;5083296;28;20232;-91
2022/12/28 17:08:02;;;;;;;4.30;2.80;;;9.80;99.90;;;;;;5110681;28;20296;-91
2022/12/28 17:11:21;;;;;;;7.20;2.70;;;9.80;99.90;;;;;;5106251;28;20213;-95
2022/12/28 17:14:45;;;;;;;3.73;2.67;;;9.80;99.90;;;;;;5093121;28;20202;-93
2022/12/28 17:17:15;;;;;;;5.40;2.40;;;9.80;99.90;;;;;;5111681;28;20262;-92
2022/12/28 17:19:42;;;;;;;4.50;2.90;;;9.80;99.90;;;;;;5097004;28;20213;-92
2022/12/28 17:22:10;;;;;;;3.47;2.77;;;9.80;99.90;;;;;;5107312;28;20261;-94
2022/12/28 17:24:38;;;;;;;4.23;2.73;;;9.70;99.90;;;;;;5108186;28;20285;-94
2022/12/28 17:27:05;;;;;;;7.03;3.37;;;9.80;99.90;;;;;;5097050;28;20288;-93
2022/12/28 17:29:35;;;;;;;4.97;3.10;;;9.80;99.90;;;;;;5107580;28;20220;-92
2022/12/28 17:32:03;;;;;;;4.93;3.35;;;9.90;99.90;;;;;;5094541;28;20462;-94
2022/12/28 17:34:39;;;;;;;4.53;2.90;;;9.90;99.90;;;;;;5104602;28;20201;-92
2022/12/28 17:37:07;;;;;;;4.23;3.13;;;10.00;99.90;;;;;;5090627;28;20232;-92
2022/12/28 17:39:39;;;;;;;4.73;2.70;;;10.00;99.90;;;;;;5089482;28;20306;-93
2022/12/28 17:42:10;;;;;;;3.97;3.10;;;10.00;99.90;;;;;;5089299;28;20217;-93
2022/12/28 17:45:17;;;;;;;3.73;2.77;;;10.00;99.90;;;;;;5090699;28;20265;-93
2022/12/28 17:48:49;;;;;;;5.27;3.00;;;10.00;99.90;;;;;;5105881;28;20372;-94
2022/12/28 17:51:51;;;;;;;3.50;3.20;;;10.00;99.90;;;;;;5111289;28;20584;-93
2022/12/28 17:54:18;;;;;;;4.80;3.30;;;10.10;99.90;;;;;;5092031;28;20211;-94
2022/12/28 17:56:48;;;;;;;3.57;3.20;;;10.10;99.90;;;;;;5110904;28;20298;-91
2022/12/28 17:59:20;;;;;;;4.63;3.77;;;10.20;99.90;;;;;;5090150;28;20228;-96
2022/12/28 18:02:08;;;;;;;3.73;3.10;;;10.10;99.90;;;;;;5097052;28;20276;-92
2022/12/28 18:07:42;;;;;;;3.80;3.40;;;10.20;99.90;;;;;;5090160;28;20256;-92
2022/12/28 18:10:10;;;;;;;6.07;3.50;;;10.20;99.90;;;;;;5093510;28;20237;-93
2022/12/28 18:12:39;;;;;;;6.77;4.03;;;10.20;99.90;;;;;;5101968;28;20224;-93
2022/12/28 18:15:12;;;;;;;4.27;3.50;;;10.20;99.90;;;;;;5084643;28;20679;-95